Time;durP1;ratioP1;P1;durP2;ratioP2;P2;SDS_P1;SDS_P2;PMS_P1;PMS_P2;Temp;Humidity;BMP_temperature;BMP_pressure;BME280_temperature;BME280_humidity;BME280_pressure;Samples;Min_cycle;Max_cycle;Signal;HPM_P1;HPM_P2
2022/10/24 00:02:02;;;;;;;4.93;2.87;;;15.20;99.90;;;;;;5115978;28;20185;-82
2022/10/24 00:04:29;;;;;;;5.87;2.73;;;15.40;99.90;;;;;;5117762;28;20683;-82
2022/10/24 00:06:56;;;;;;;4.63;2.25;;;15.40;99.90;;;;;;5117043;28;20272;-82
2022/10/24 00:09:23;;;;;;;5.40;2.97;;;15.40;99.90;;;;;;5117929;28;20217;-82
2022/10/24 00:11:49;;;;;;;5.50;2.30;;;15.30;99.90;;;;;;5117806;28;20188;-83
2022/10/24 00:14:16;;;;;;;5.43;2.57;;;15.30;99.90;;;;;;5117719;28;20203;-82
2022/10/24 00:16:44;;;;;;;4.68;2.33;;;15.40;99.90;;;;;;5117896;28;20208;-83
2022/10/24 00:19:11;;;;;;;6.22;2.90;;;15.30;99.90;;;;;;5117683;28;20235;-83
2022/10/24 00:21:38;;;;;;;3.83;2.72;;;15.40;99.90;;;;;;5117428;28;20243;-83
2022/10/24 00:24:06;;;;;;;5.25;2.97;;;15.40;99.90;;;;;;5117910;28;20197;-82
2022/10/24 00:26:32;;;;;;;4.47;2.83;;;15.50;99.90;;;;;;5116057;28;20193;-83
2022/10/24 00:28:59;;;;;;;6.23;3.27;;;15.50;99.90;;;;;;5116341;28;20225;-82
2022/10/24 00:31:26;;;;;;;4.47;2.70;;;15.40;99.90;;;;;;5114316;28;20189;-82
2022/10/24 00:33:55;;;;;;;7.90;2.53;;;15.40;99.90;;;;;;5116716;28;20656;-82
2022/10/24 00:36:24;;;;;;;6.95;2.63;;;15.30;99.90;;;;;;5116476;28;20205;-82
2022/10/24 00:38:52;;;;;;;3.80;2.80;;;15.40;99.90;;;;;;5116641;28;20231;-83
2022/10/24 00:41:21;;;;;;;4.27;2.60;;;15.50;99.90;;;;;;5117039;28;20225;-82
2022/10/24 00:43:48;;;;;;;5.53;3.03;;;15.40;99.90;;;;;;5117247;28;20213;-81
2022/10/24 00:46:16;;;;;;;6.55;2.95;;;15.50;99.90;;;;;;5114602;28;20595;-83
2022/10/24 00:48:45;;;;;;;6.38;2.47;;;15.60;99.90;;;;;;5117178;28;20700;-82
2022/10/24 00:51:20;;;;;;;5.00;2.83;;;15.60;99.90;;;;;;5115791;28;20489;-82
2022/10/24 00:53:50;;;;;;;4.15;2.60;;;15.40;99.90;;;;;;5115482;28;20193;-82
2022/10/24 00:56:19;;;;;;;6.20;2.55;;;15.40;99.90;;;;;;5113938;28;20203;-82
2022/10/24 00:58:47;;;;;;;5.88;2.78;;;15.20;99.90;;;;;;5115679;28;20855;-82
2022/10/24 01:01:14;;;;;;;8.02;2.63;;;15.20;99.90;;;;;;5115294;28;20259;-82
2022/10/24 01:03:41;;;;;;;5.72;2.53;;;15.10;99.90;;;;;;5115176;28;20440;-82
2022/10/24 01:06:23;;;;;;;5.07;2.38;;;15.10;99.90;;;;;;5116515;28;20211;-82
2022/10/24 01:08:56;;;;;;;6.65;2.95;;;15.00;99.90;;;;;;5116710;27;20224;-82
2022/10/24 01:11:37;;;;;;;5.43;2.95;;;15.10;99.90;;;;;;5116817;28;20187;-82
2022/10/24 01:14:21;;;;;;;6.88;2.80;;;15.10;99.90;;;;;;5115352;28;20215;-82
2022/10/24 01:16:50;;;;;;;6.10;3.03;;;15.10;99.90;;;;;;5116027;28;20177;-82
2022/10/24 01:19:38;;;;;;;6.27;2.90;;;15.30;99.90;;;;;;5114904;28;20221;-82
2022/10/24 01:22:11;;;;;;;6.93;3.05;;;15.20;99.90;;;;;;5115799;28;20216;-81
2022/10/24 01:24:58;;;;;;;7.50;3.00;;;15.20;99.90;;;;;;5116430;28;20201;-82
2022/10/24 01:27:40;;;;;;;4.00;2.90;;;15.20;99.90;;;;;;5114093;28;20186;-82
2022/10/24 01:30:09;;;;;;;5.53;2.80;;;15.10;99.90;;;;;;5114234;28;20582;-82
2022/10/24 01:32:43;;;;;;;7.77;2.97;;;15.00;99.90;;;;;;5115012;28;20207;-82
2022/10/24 01:35:23;;;;;;;4.77;2.70;;;15.00;99.90;;;;;;5115024;28;20564;-83
2022/10/24 01:37:57;;;;;;;5.63;2.70;;;15.00;99.90;;;;;;5115814;28;20189;-82
2022/10/24 01:40:28;;;;;;;7.43;3.40;;;15.00;99.90;;;;;;5114438;28;20220;-82
2022/10/24 01:43:00;;;;;;;8.83;3.20;;;15.00;99.90;;;;;;5117080;28;20645;-82
2022/10/24 01:45:33;;;;;;;5.75;3.15;;;15.20;99.90;;;;;;5116191;28;20182;-82
2022/10/24 01:48:05;;;;;;;7.13;2.65;;;15.10;99.90;;;;;;5115349;28;20277;-82
2022/10/24 01:50:34;;;;;;;8.88;3.15;;;15.10;99.90;;;;;;5114375;28;20240;-82
2022/10/24 01:53:03;;;;;;;5.85;3.13;;;15.10;99.90;;;;;;5115684;28;20207;-82
2022/10/24 01:55:31;;;;;;;8.73;3.20;;;15.00;99.90;;;;;;5115932;28;20201;-82
2022/10/24 01:57:58;;;;;;;4.95;2.65;;;14.80;99.90;;;;;;5114687;28;20594;-82
2022/10/24 02:00:25;;;;;;;8.32;3.22;;;15.00;99.90;;;;;;5114658;28;20592;-82
2022/10/24 02:02:56;;;;;;;4.40;2.70;;;14.80;99.90;;;;;;5114500;28;20201;-82
2022/10/24 02:05:28;;;;;;;8.98;3.53;;;14.90;99.90;;;;;;5113343;28;20189;-82
2022/10/24 02:08:00;;;;;;;8.00;3.20;;;14.90;99.90;;;;;;5114891;28;20197;-82
2022/10/24 02:10:30;;;;;;;8.83;2.70;;;14.90;99.90;;;;;;5114131;28;20227;-82
2022/10/24 02:13:01;;;;;;;4.83;3.13;;;15.00;99.90;;;;;;5112915;28;20191;-82
2022/10/24 02:15:31;;;;;;;7.83;3.30;;;15.00;99.90;;;;;;5115595;28;20192;-82
2022/10/24 02:17:59;;;;;;;10.38;3.65;;;15.00;99.90;;;;;;5114976;28;20219;-82
2022/10/24 02:20:33;;;;;;;7.40;2.92;;;15.00;99.90;;;;;;5113707;28;20221;-82
2022/10/24 02:23:07;;;;;;;6.38;2.95;;;15.00;99.90;;;;;;5115516;28;20193;-82
2022/10/24 02:25:37;;;;;;;5.95;3.10;;;15.00;99.90;;;;;;5115052;28;20204;-82
2022/10/24 02:28:09;;;;;;;5.07;2.90;;;15.00;99.90;;;;;;5114974;28;20193;-82
2022/10/24 02:30:41;;;;;;;8.00;2.80;;;14.70;99.90;;;;;;5114372;28;20224;-82
2022/10/24 02:33:10;;;;;;;5.80;2.58;;;14.70;99.90;;;;;;5115008;28;20657;-82
2022/10/24 02:35:40;;;;;;;5.10;2.70;;;14.70;99.90;;;;;;5112393;28;20613;-82
2022/10/24 02:38:13;;;;;;;7.25;2.95;;;14.70;99.90;;;;;;5114356;28;20211;-82
2022/10/24 02:40:41;;;;;;;6.57;2.88;;;14.70;99.90;;;;;;5113875;28;20231;-82
2022/10/24 02:43:10;;;;;;;6.87;2.57;;;14.80;99.90;;;;;;5113979;28;20201;-82
2022/10/24 02:45:38;;;;;;;8.87;3.17;;;14.80;99.90;;;;;;5114583;28;20219;-82
2022/10/24 02:48:09;;;;;;;6.87;3.10;;;14.70;99.90;;;;;;5114727;28;20208;-82
2022/10/24 02:50:39;;;;;;;6.03;3.07;;;14.50;99.90;;;;;;5109149;28;20239;-82
2022/10/24 02:53:08;;;;;;;5.82;3.13;;;14.50;99.90;;;;;;5114083;28;20649;-82
2022/10/24 02:55:35;;;;;;;7.93;3.35;;;14.30;99.90;;;;;;5114682;28;20201;-82
2022/10/24 02:58:02;;;;;;;8.00;2.85;;;14.10;99.90;;;;;;5094157;28;20212;-82
2022/10/24 03:00:28;;;;;;;7.55;3.60;;;14.10;99.90;;;;;;5094400;28;20222;-82
2022/10/24 03:02:55;;;;;;;6.17;2.97;;;14.10;99.90;;;;;;5094257;28;20825;-82
2022/10/24 03:05:22;;;;;;;5.53;3.00;;;14.10;99.90;;;;;;5104132;28;20630;-82
2022/10/24 03:07:50;;;;;;;4.97;2.93;;;14.00;99.90;;;;;;5114613;28;20190;-82
2022/10/24 03:10:17;;;;;;;9.27;3.10;;;14.00;99.90;;;;;;5114472;28;20227;-83
2022/10/24 03:12:44;;;;;;;5.97;3.33;;;13.90;99.90;;;;;;5115346;28;20205;-82
2022/10/24 03:15:11;;;;;;;8.47;3.77;;;13.80;99.90;;;;;;5114908;28;20205;-83
2022/10/24 03:17:38;;;;;;;8.10;3.50;;;13.80;99.90;;;;;;5114423;28;20680;-82
2022/10/24 03:20:06;;;;;;;7.33;3.50;;;13.70;99.90;;;;;;5114089;28;20595;-82
2022/10/24 03:22:32;;;;;;;9.43;3.43;;;13.50;99.90;;;;;;5113858;28;20221;-82
2022/10/24 03:25:02;;;;;;;8.13;3.40;;;13.50;99.90;;;;;;5114160;28;20679;-82
2022/10/24 03:27:30;;;;;;;7.67;3.50;;;13.50;99.90;;;;;;5114331;28;20201;-82
2022/10/24 03:29:56;;;;;;;8.30;3.67;;;13.40;99.90;;;;;;5114128;28;20719;-82
2022/10/24 03:32:23;;;;;;;10.80;6.67;;;13.50;99.90;;;;;;5114466;28;20560;-83
2022/10/24 03:34:50;;;;;;;13.60;7.30;;;13.50;99.90;;;;;;5114123;28;20212;-83
2022/10/24 03:37:17;;;;;;;8.33;4.60;;;13.50;99.90;;;;;;5114351;28;20708;-82
2022/10/24 03:39:43;;;;;;;8.63;3.30;;;14.00;99.90;;;;;;5114283;28;20213;-82
2022/10/24 03:42:12;;;;;;;12.93;3.53;;;14.30;99.90;;;;;;5113967;28;20224;-82
2022/10/24 03:44:39;;;;;;;5.83;3.67;;;14.50;99.90;;;;;;5114319;28;20292;-83
2022/10/24 03:47:06;;;;;;;9.57;3.27;;;14.70;99.90;;;;;;5114386;28;20672;-82
2022/10/24 03:49:33;;;;;;;7.80;3.30;;;14.70;99.90;;;;;;5114314;28;20323;-82
2022/10/24 03:52:00;;;;;;;10.70;3.87;;;14.90;99.90;;;;;;5114273;28;20185;-82
2022/10/24 03:54:26;;;;;;;9.97;4.20;;;15.10;99.90;;;;;;5114366;28;20208;-82
2022/10/24 03:56:53;;;;;;;8.70;3.50;;;15.00;99.90;;;;;;5114467;28;20207;-82
2022/10/24 03:59:21;;;;;;;8.97;3.57;;;15.30;99.90;;;;;;5114148;28;20227;-81
2022/10/24 04:01:48;;;;;;;9.60;4.00;;;15.10;99.90;;;;;;5113935;28;20221;-82
2022/10/24 04:04:15;;;;;;;8.63;3.23;;;15.10;99.90;;;;;;5114342;28;20679;-82
2022/10/24 04:06:42;;;;;;;10.13;4.10;;;14.90;99.90;;;;;;5114567;28;20215;-82
2022/10/24 04:09:08;;;;;;;5.95;3.45;;;15.00;99.90;;;;;;5114351;28;20231;-82
2022/10/24 04:11:35;;;;;;;7.03;3.53;;;14.90;99.90;;;;;;5114235;28;20674;-82
2022/10/24 04:14:02;;;;;;;6.80;3.20;;;14.90;99.90;;;;;;5114001;28;20219;-82
2022/10/24 04:16:32;;;;;;;7.70;3.77;;;15.00;99.90;;;;;;5113829;28;20548;-82
2022/10/24 04:18:59;;;;;;;14.50;4.13;;;15.10;99.90;;;;;;5114311;28;20312;-83
2022/10/24 04:21:26;;;;;;;7.97;3.45;;;15.20;99.90;;;;;;5114679;28;20213;-81
2022/10/24 04:23:53;;;;;;;11.23;4.07;;;15.10;99.90;;;;;;5113967;28;20213;-83
2022/10/24 04:26:20;;;;;;;14.23;7.00;;;15.20;99.90;;;;;;5102673;28;20560;-83
2022/10/24 04:28:47;;;;;;;10.93;4.07;;;15.20;99.90;;;;;;5093604;28;20225;-83
2022/10/24 04:31:14;;;;;;;8.73;3.73;;;15.20;99.90;;;;;;5092474;28;20564;-83
2022/10/24 04:33:43;;;;;;;10.00;3.70;;;15.30;99.90;;;;;;5115174;28;20205;-83
2022/10/24 04:36:09;;;;;;;8.88;3.10;;;15.40;99.90;;;;;;5117434;28;20201;-83
2022/10/24 04:38:36;;;;;;;9.03;3.80;;;15.20;99.90;;;;;;5117837;28;20205;-82
2022/10/24 04:41:03;;;;;;;11.57;3.65;;;15.40;99.90;;;;;;5115569;28;20201;-83
2022/10/24 04:43:30;;;;;;;9.63;3.23;;;15.30;99.90;;;;;;5117356;28;20205;-82
2022/10/24 04:45:57;;;;;;;7.95;3.85;;;15.20;99.90;;;;;;5116723;28;20189;-83
2022/10/24 04:48:23;;;;;;;9.33;3.23;;;15.40;99.90;;;;;;5116548;28;20199;-83
2022/10/24 04:50:52;;;;;;;13.05;4.20;;;15.30;99.90;;;;;;5117644;28;20209;-83
2022/10/24 04:53:18;;;;;;;9.47;3.50;;;15.10;99.90;;;;;;5116556;28;20189;-83
2022/10/24 04:55:45;;;;;;;9.23;3.87;;;15.10;99.90;;;;;;5116927;28;20579;-83
2022/10/24 04:58:12;;;;;;;12.95;3.35;;;15.10;99.90;;;;;;5116332;28;20209;-83
2022/10/24 05:00:41;;;;;;;8.10;3.43;;;15.30;99.90;;;;;;5117108;28;20224;-82
2022/10/24 05:03:08;;;;;;;8.95;3.53;;;15.30;99.90;;;;;;5116997;28;20225;-83
2022/10/24 05:05:35;;;;;;;8.17;3.27;;;15.30;99.90;;;;;;5116133;28;20649;-82
2022/10/24 05:08:03;;;;;;;8.57;4.00;;;15.30;99.90;;;;;;5116350;28;20745;-82
2022/10/24 05:10:30;;;;;;;9.37;3.00;;;15.20;99.90;;;;;;5115861;28;20216;-83
2022/10/24 05:12:57;;;;;;;9.63;3.70;;;15.20;99.90;;;;;;5117090;28;20201;-83
2022/10/24 05:15:23;;;;;;;10.00;3.65;;;15.30;99.90;;;;;;5117095;28;20205;-83
2022/10/24 05:17:50;;;;;;;7.83;3.10;;;15.20;99.90;;;;;;5116955;28;20204;-83
2022/10/24 05:20:17;;;;;;;7.70;3.57;;;15.30;99.90;;;;;;5117097;28;20312;-83
2022/10/24 05:22:44;;;;;;;8.70;4.20;;;15.20;99.90;;;;;;5116380;28;20256;-83
2022/10/24 05:25:12;;;;;;;15.32;4.32;;;15.10;99.90;;;;;;5117284;28;20304;-82
2022/10/24 05:27:39;;;;;;;10.27;3.83;;;15.30;99.90;;;;;;5116729;28;20197;-82
2022/10/24 05:30:07;;;;;;;7.37;3.60;;;15.20;99.90;;;;;;5117065;28;20718;-83
2022/10/24 05:32:34;;;;;;;12.20;3.83;;;15.10;99.90;;;;;;5117253;28;20197;-83
2022/10/24 05:35:01;;;;;;;11.02;3.88;;;15.30;99.90;;;;;;5116629;28;20189;-82
2022/10/24 05:37:28;;;;;;;8.47;3.83;;;15.40;99.90;;;;;;5116501;28;20265;-82
2022/10/24 05:39:54;;;;;;;9.27;4.13;;;15.20;99.90;;;;;;5116463;28;20217;-81
2022/10/24 05:42:23;;;;;;;8.50;3.28;;;15.30;99.90;;;;;;5116814;28;20243;-83
2022/10/24 05:44:49;;;;;;;8.97;3.83;;;15.20;99.90;;;;;;5115122;28;20660;-82
2022/10/24 05:47:16;;;;;;;10.68;4.10;;;15.10;99.90;;;;;;5116191;28;20201;-82
2022/10/24 05:49:43;;;;;;;12.37;3.97;;;15.10;99.90;;;;;;5115859;28;20232;-82
2022/10/24 05:52:10;;;;;;;7.97;3.75;;;15.10;99.90;;;;;;5116469;28;20280;-82
2022/10/24 05:54:36;;;;;;;6.68;3.92;;;15.40;99.90;;;;;;5116207;28;20200;-83
2022/10/24 05:57:03;;;;;;;8.70;4.00;;;15.20;99.90;;;;;;5116203;28;20215;-82
2022/10/24 05:59:31;;;;;;;8.18;3.92;;;15.10;99.90;;;;;;5116515;28;20221;-83
2022/10/24 06:01:58;;;;;;;10.20;3.28;;;15.00;99.90;;;;;;5115905;28;20227;-82
2022/10/24 06:04:25;;;;;;;10.02;3.63;;;15.20;99.90;;;;;;5115838;28;20205;-83
2022/10/24 06:06:52;;;;;;;10.32;3.53;;;15.20;99.90;;;;;;5116624;28;20201;-83
2022/10/24 06:09:18;;;;;;;9.63;4.20;;;15.20;99.90;;;;;;5116540;28;20220;-83
2022/10/24 06:11:45;;;;;;;8.30;3.30;;;15.20;99.90;;;;;;5116592;28;20197;-82
2022/10/24 06:14:12;;;;;;;12.50;3.60;;;15.40;99.90;;;;;;5116397;28;20212;-82
2022/10/24 06:16:40;;;;;;;14.43;3.60;;;15.50;99.90;;;;;;5116229;28;20212;-83
2022/10/24 06:19:07;;;;;;;9.93;3.55;;;15.40;99.90;;;;;;5116137;28;20582;-82
2022/10/24 06:21:34;;;;;;;9.25;3.30;;;15.30;99.90;;;;;;5115918;28;20923;-83
2022/10/24 06:24:00;;;;;;;6.70;3.00;;;15.10;99.90;;;;;;5115899;28;20193;-83
2022/10/24 06:26:27;;;;;;;9.93;3.88;;;15.40;99.90;;;;;;5115839;28;20203;-83
2022/10/24 06:28:55;;;;;;;7.97;3.75;;;15.10;99.90;;;;;;5115360;28;20244;-83
2022/10/24 06:31:24;;;;;;;8.90;3.40;;;15.20;99.90;;;;;;5115115;28;20205;-83
2022/10/24 06:33:54;;;;;;;5.80;3.20;;;15.10;99.90;;;;;;5115307;28;20205;-83
2022/10/24 06:36:21;;;;;;;11.25;3.45;;;15.10;99.90;;;;;;5115472;28;20703;-83
2022/10/24 06:38:48;;;;;;;8.83;3.30;;;15.10;99.90;;;;;;5115416;28;20251;-83
2022/10/24 06:41:15;;;;;;;10.67;3.83;;;15.10;99.90;;;;;;5115644;28;20578;-82
2022/10/24 06:43:42;;;;;;;9.80;3.95;;;15.20;99.90;;;;;;5114705;28;20213;-82
2022/10/24 06:46:12;;;;;;;10.77;3.30;;;15.30;99.90;;;;;;5113754;28;20223;-82
2022/10/24 06:48:39;;;;;;;8.63;3.60;;;15.40;99.90;;;;;;5114541;28;20240;-82
2022/10/24 06:51:08;;;;;;;9.30;3.13;;;15.40;99.90;;;;;;5115102;28;20209;-82
2022/10/24 06:53:35;;;;;;;10.25;3.00;;;15.60;99.90;;;;;;5115940;28;20201;-82
2022/10/24 06:56:04;;;;;;;12.23;3.50;;;15.70;99.90;;;;;;5114985;28;20197;-82
2022/10/24 06:58:32;;;;;;;11.67;3.33;;;15.80;99.90;;;;;;5114648;28;20201;-82
2022/10/24 07:00:59;;;;;;;9.45;3.40;;;15.80;99.90;;;;;;5114643;28;20602;-83
2022/10/24 07:03:26;;;;;;;7.82;3.13;;;15.80;99.90;;;;;;5114354;28;20224;-83
2022/10/24 07:05:53;;;;;;;7.53;3.25;;;15.80;99.90;;;;;;5115370;28;20211;-83
2022/10/24 07:08:21;;;;;;;9.48;3.60;;;15.70;99.90;;;;;;5115684;28;20196;-83
2022/10/24 07:10:48;;;;;;;9.57;3.37;;;15.80;99.90;;;;;;5113966;28;20203;-82
2022/10/24 07:13:14;;;;;;;7.50;3.55;;;15.90;99.90;;;;;;5113866;28;20209;-83
2022/10/24 07:15:41;;;;;;;13.32;4.18;;;15.80;99.90;;;;;;5114045;28;20212;-82
2022/10/24 07:18:14;;;;;;;9.93;3.17;;;15.80;99.90;;;;;;5114439;28;20216;-83
2022/10/24 07:20:41;;;;;;;8.13;3.47;;;16.00;99.90;;;;;;5113697;28;20220;-82
2022/10/24 07:23:08;;;;;;;6.68;2.90;;;15.90;99.90;;;;;;5114380;28;20224;-83
2022/10/24 07:25:37;;;;;;;9.55;2.80;;;16.00;99.90;;;;;;5114833;28;20197;-83
2022/10/24 07:28:05;;;;;;;11.93;3.75;;;16.20;99.90;;;;;;5114456;28;20682;-82
2022/10/24 07:30:31;;;;;;;8.40;3.13;;;16.40;99.90;;;;;;5114839;28;20884;-83
2022/10/24 07:32:58;;;;;;;8.70;3.47;;;16.60;99.90;;;;;;5114671;28;20223;-83
2022/10/24 07:35:25;;;;;;;9.90;3.72;;;16.60;99.90;;;;;;5114719;28;20219;-83
2022/10/24 07:37:52;;;;;;;8.07;3.22;;;16.60;99.90;;;;;;5115274;28;20205;-82
2022/10/24 07:40:19;;;;;;;7.15;2.72;;;16.70;99.90;;;;;;5115296;28;20220;-82
2022/10/24 07:42:48;;;;;;;8.02;3.65;;;16.80;99.90;;;;;;5114336;28;20223;-82
2022/10/24 07:45:15;;;;;;;9.35;4.10;;;16.90;99.90;;;;;;5114596;28;20208;-83
2022/10/24 07:47:42;;;;;;;10.43;3.40;;;17.20;99.90;;;;;;5114742;28;20204;-82
2022/10/24 07:50:09;;;;;;;6.72;2.80;;;17.10;99.90;;;;;;5114786;28;20272;-82
2022/10/24 07:52:36;;;;;;;4.97;2.83;;;17.00;99.90;;;;;;5114854;28;20193;-83
2022/10/24 07:55:03;;;;;;;8.75;3.30;;;17.10;99.90;;;;;;5114478;28;20207;-83
2022/10/24 07:57:30;;;;;;;5.32;3.10;;;17.10;99.90;;;;;;5113593;28;20578;-83
2022/10/24 07:59:58;;;;;;;11.45;3.38;;;17.10;99.90;;;;;;5114542;28;20227;-83
2022/10/24 08:02:25;;;;;;;12.35;3.20;;;17.30;99.90;;;;;;5113279;28;20593;-83
2022/10/24 08:04:51;;;;;;;9.32;3.10;;;17.30;99.90;;;;;;5114062;28;20197;-83
2022/10/24 08:07:18;;;;;;;12.35;3.83;;;17.50;99.90;;;;;;5114382;28;20197;-81
2022/10/24 08:09:49;;;;;;;7.20;3.33;;;17.50;99.90;;;;;;5118924;28;20233;-83
2022/10/24 08:12:17;;;;;;;8.63;2.78;;;17.60;99.90;;;;;;5117448;28;20224;-82
2022/10/24 08:14:44;;;;;;;11.02;3.30;;;17.90;99.90;;;;;;5117878;28;20212;-84
2022/10/24 08:17:12;;;;;;;7.20;2.70;;;17.90;99.90;;;;;;5118405;28;20694;-82
2022/10/24 08:19:40;;;;;;;10.73;3.33;;;18.10;99.90;;;;;;5118853;28;20557;-82
2022/10/24 08:22:08;;;;;;;7.60;2.50;;;18.00;99.90;;;;;;5116897;28;20197;-83
2022/10/24 08:24:35;;;;;;;8.10;2.80;;;18.20;99.90;;;;;;5118015;28;20246;-82
2022/10/24 08:27:02;;;;;;;7.43;2.92;;;18.20;99.90;;;;;;5116965;28;20205;-82
2022/10/24 08:29:29;;;;;;;9.90;2.83;;;17.90;99.90;;;;;;5117633;28;20574;-82
2022/10/24 08:31:56;;;;;;;8.20;2.53;;;17.90;99.90;;;;;;5117336;28;20219;-82
2022/10/24 08:34:24;;;;;;;10.63;3.25;;;17.90;99.90;;;;;;5118219;28;20209;-83
2022/10/24 08:36:51;;;;;;;9.07;2.75;;;17.90;99.90;;;;;;5119038;28;20201;-82
2022/10/24 08:39:18;;;;;;;10.02;2.53;;;17.90;99.90;;;;;;5118301;28;20221;-82
2022/10/24 08:41:49;;;;;;;9.57;2.60;;;17.90;99.90;;;;;;5117458;28;20201;-82
2022/10/24 08:44:24;;;;;;;12.60;3.15;;;18.10;99.90;;;;;;5118338;28;20205;-82
2022/10/24 08:46:55;;;;;;;9.82;3.25;;;18.20;99.90;;;;;;5118335;28;20177;-82
2022/10/24 08:49:33;;;;;;;6.60;2.67;;;18.10;99.90;;;;;;5118085;28;20316;-83
2022/10/24 08:52:03;;;;;;;8.85;3.13;;;18.20;99.90;;;;;;5118477;28;20200;-82
2022/10/24 08:54:36;;;;;;;7.25;2.65;;;18.20;99.90;;;;;;5118692;28;20207;-82
2022/10/24 08:57:04;;;;;;;7.57;2.75;;;18.30;99.90;;;;;;5118035;28;20576;-82
2022/10/24 08:59:35;;;;;;;9.63;3.17;;;18.50;99.90;;;;;;5117970;28;20213;-82
2022/10/24 09:02:05;;;;;;;10.93;3.67;;;18.50;99.90;;;;;;5117975;28;20193;-83
2022/10/24 09:04:40;;;;;;;7.70;2.53;;;18.50;99.90;;;;;;5118073;28;20212;-82
2022/10/24 09:07:13;;;;;;;9.35;2.95;;;18.60;99.90;;;;;;5118009;28;20672;-82
2022/10/24 09:09:45;;;;;;;6.97;2.83;;;18.70;99.90;;;;;;5118158;28;20215;-82
2022/10/24 09:12:14;;;;;;;9.00;3.08;;;18.70;99.90;;;;;;5118268;28;20240;-83
2022/10/24 09:14:42;;;;;;;7.78;2.88;;;18.80;99.90;;;;;;5118178;28;20564;-82
2022/10/24 09:17:16;;;;;;;11.88;2.92;;;19.00;99.90;;;;;;5117344;28;20215;-82
2022/10/24 09:19:50;;;;;;;7.45;2.80;;;19.00;99.90;;;;;;5117425;28;20225;-82
2022/10/24 09:22:18;;;;;;;12.18;2.70;;;19.00;99.90;;;;;;5117357;28;20201;-82
2022/10/24 09:24:49;;;;;;;6.90;2.60;;;18.90;1.00;;;;;;5119059;28;20207;-83
2022/10/24 09:27:20;;;;;;;8.60;2.50;;;19.10;1.00;;;;;;5117328;28;20229;-83
2022/10/24 09:29:47;;;;;;;9.88;2.97;;;19.30;1.00;;;;;;5117213;28;20225;-81
2022/10/24 09:32:17;;;;;;;7.78;2.55;;;19.20;38.60;;;;;;5117241;28;20205;-82
2022/10/24 09:34:45;;;;;;;4.82;2.60;;;19.30;1.00;;;;;;5116977;28;20199;-83
2022/10/24 09:37:38;;;;;;;6.20;2.40;;;19.50;1.00;;;;;;5116856;28;20197;-83
2022/10/24 09:40:16;;;;;;;8.90;2.50;;;19.40;1.00;;;;;;5114651;28;20221;-82
2022/10/24 09:42:50;;;;;;;7.22;1.95;;;19.50;99.90;;;;;;5116524;28;20209;-82
2022/10/24 09:45:41;;;;;;;6.05;2.50;;;19.70;1.10;;;;;;5117577;28;20227;-82
2022/10/24 09:48:19;;;;;;;11.80;2.90;;;19.70;99.90;;;;;;5116705;28;20201;-82
2022/10/24 09:50:49;;;;;;;5.55;2.85;;;19.90;99.90;;;;;;5116460;28;20205;-82
2022/10/24 09:53:25;;;;;;;9.25;2.47;;;20.10;99.90;;;;;;5116455;28;20622;-81
2022/10/24 09:55:55;;;;;;;6.18;2.55;;;20.20;1.00;;;;;;5116620;28;20200;-81
2022/10/24 09:58:31;;;;;;;7.13;2.35;;;20.40;1.00;;;;;;5116695;28;21001;-80
2022/10/24 10:01:00;;;;;;;15.85;2.58;;;20.50;99.90;;;;;;5117074;28;20189;-83
2022/10/24 10:03:27;;;;;;;5.85;2.70;;;20.70;1.00;;;;;;5116251;28;20227;-81
2022/10/24 10:05:57;;;;;;;11.52;2.85;;;21.00;1.00;;;;;;5116710;28;20930;-80
2022/10/24 10:08:27;;;;;;;6.18;2.13;;;20.90;1.00;;;;;;5116207;28;20211;-81
2022/10/24 10:10:59;;;;;;;7.15;2.83;;;21.20;1.00;;;;;;5116428;28;20227;-81
2022/10/24 10:13:27;;;;;;;6.15;2.08;;;21.10;99.90;;;;;;5117142;28;20204;-81
2022/10/24 10:15:56;;;;;;;5.88;2.30;;;21.00;1.00;;;;;;5117228;28;20699;-80
2022/10/24 10:18:41;;;;;;;9.05;2.60;;;20.90;99.90;;;;;;5119086;28;20193;-82
2022/10/24 10:21:12;;;;;;;6.05;2.05;;;20.90;99.90;;;;;;5112409;28;20197;-84
2022/10/24 10:23:41;;;;;;;5.10;2.53;;;21.00;1.00;;;;;;5137212;27;20223;-81
2022/10/24 10:26:21;;;;;;;7.47;2.50;;;20.80;1.00;;;;;;5124221;27;20215;-82
2022/10/24 10:28:56;;;;;;;8.63;2.40;;;20.40;1.00;;;;;;5117733;28;20229;-82
2022/10/24 10:31:26;;;;;;;6.97;2.60;;;20.50;99.90;;;;;;5118164;28;20185;-83
2022/10/24 10:34:12;;;;;;;6.53;2.13;;;20.50;1.00;;;;;;5117413;28;20181;-81
2022/10/24 10:36:51;;;;;;;5.22;1.88;;;20.40;66.70;;;;;;5118252;28;20205;-83
2022/10/24 10:39:50;;;;;;;4.78;1.98;;;20.20;99.90;;;;;;5117157;28;20216;-82
2022/10/24 10:42:22;;;;;;;6.03;2.25;;;20.50;99.90;;;;;;5115971;28;20177;-83
2022/10/24 10:44:59;;;;;;;7.32;2.20;;;20.80;88.60;;;;;;5094966;28;20214;-82
2022/10/24 10:47:35;;;;;;;16.80;2.47;;;20.90;1.00;;;;;;5109941;28;20674;-81
2022/10/24 10:50:21;;;;;;;8.68;2.60;;;21.10;1.00;;;;;;5117219;28;20231;-82
2022/10/24 10:52:50;;;;;;;5.70;2.10;;;21.10;1.00;;;;;;5116968;28;20196;-82
2022/10/24 10:55:29;;;;;;;7.18;1.90;;;20.60;1.00;;;;;;5118170;28;20201;-83
2022/10/24 10:58:04;;;;;;;6.20;1.92;;;20.50;1.00;;;;;;5119473;28;20275;-82
2022/10/24 11:00:50;;;;;;;6.18;2.25;;;20.20;1.00;;;;;;5116735;28;20221;-83
2022/10/24 11:03:33;;;;;;;5.82;3.00;;;20.30;1.00;;;;;;5116043;28;20209;-83
2022/10/24 11:06:22;;;;;;;5.70;1.95;;;20.20;99.90;;;;;;5116790;28;20193;-84
2022/10/24 11:09:12;;;;;;;6.53;2.22;;;20.10;99.90;;;;;;5115520;28;20228;-84
2022/10/24 11:11:42;;;;;;;5.60;2.22;;;19.90;99.90;;;;;;5116721;28;20567;-82
2022/10/24 11:14:22;;;;;;;5.90;2.08;;;19.90;99.90;;;;;;5117073;28;20199;-83
2022/10/24 11:16:50;;;;;;;4.72;1.88;;;19.70;99.90;;;;;;5118797;28;20185;-83
2022/10/24 11:19:25;;;;;;;8.43;2.35;;;19.80;1.00;;;;;;5119213;28;20316;-83
2022/10/24 11:21:55;;;;;;;6.35;1.92;;;19.80;99.90;;;;;;5118402;28;20573;-85
2022/10/24 11:24:24;;;;;;;5.63;2.05;;;20.10;1.00;;;;;;5120551;28;20668;-83
2022/10/24 11:26:57;;;;;;;6.35;2.10;;;20.30;1.00;;;;;;5119580;28;20672;-84
2022/10/24 11:29:28;;;;;;;5.40;2.33;;;20.50;1.00;;;;;;5118876;28;20219;-83
2022/10/24 11:31:57;;;;;;;6.97;1.85;;;20.70;1.00;;;;;;5120116;28;20185;-84
2022/10/24 11:34:31;;;;;;;9.48;2.38;;;20.80;99.90;;;;;;5120153;28;20203;-85
2022/10/24 11:37:02;;;;;;;5.53;2.08;;;20.70;99.90;;;;;;5119410;28;20219;-85
2022/10/24 11:39:37;;;;;;;7.88;2.05;;;20.40;1.00;;;;;;5119746;28;20581;-83
2022/10/24 11:42:09;;;;;;;8.48;2.30;;;20.40;1.00;;;;;;5117147;28;20555;-83
2022/10/24 11:44:47;;;;;;;8.70;3.13;;;20.20;1.00;;;;;;5124201;28;20587;-83
2022/10/24 11:47:33;;;;;;;8.02;1.90;;;20.20;1.00;;;;;;5122397;28;20198;-82
2022/10/24 11:50:07;;;;;;;5.60;1.80;;;20.10;1.00;;;;;;5123130;28;20236;-84
2022/10/24 11:52:39;;;;;;;5.07;2.17;;;19.90;1.00;;;;;;5122978;28;20264;-83
2022/10/24 11:55:15;;;;;;;6.25;2.38;;;19.90;99.90;;;;;;5120599;28;20557;-84
2022/10/24 11:57:44;;;;;;;8.20;2.03;;;19.80;99.90;;;;;;5121464;28;20184;-84
2022/10/24 12:00:19;;;;;;;8.32;2.10;;;19.70;99.90;;;;;;5120346;28;20221;-82
2022/10/24 12:03:22;;;;;;;10.18;2.50;;;19.50;1.00;;;;;;5123307;28;20191;-82
2022/10/24 12:06:04;;;;;;;5.43;2.10;;;19.60;1.00;;;;;;5117341;28;20887;-82
2022/10/24 12:09:04;;;;;;;5.35;2.65;;;19.60;1.00;;;;;;5119931;28;20177;-82
2022/10/24 12:11:57;;;;;;;10.00;2.60;;;19.60;1.00;;;;;;5121002;28;20205;-82
2022/10/24 12:14:50;;;;;;;7.78;2.15;;;19.60;1.00;;;;;;5122189;28;20203;-83
2022/10/24 12:17:39;;;;;;;7.10;2.40;;;19.70;1.00;;;;;;5121093;28;20244;-83
2022/10/24 12:20:11;;;;;;;8.73;2.42;;;19.60;1.00;;;;;;5122751;28;20213;-84
2022/10/24 12:22:41;;;;;;;7.75;2.22;;;19.60;99.90;;;;;;5123770;28;20697;-82
2022/10/24 12:25:19;;;;;;;5.70;2.05;;;19.70;99.90;;;;;;5121988;28;20221;-84
2022/10/24 12:27:53;;;;;;;4.90;1.98;;;19.60;1.00;;;;;;5123601;28;20207;-86
2022/10/24 12:30:23;;;;;;;4.47;2.22;;;19.60;1.00;;;;;;5121483;28;20225;-83
2022/10/24 12:32:55;;;;;;;6.57;2.50;;;19.60;1.00;;;;;;5121210;28;20213;-83
2022/10/24 12:35:48;;;;;;;6.45;2.72;;;19.70;1.00;;;;;;5121498;28;20224;-84
2022/10/24 12:38:17;;;;;;;9.38;2.30;;;19.60;1.00;;;;;;5120647;28;20239;-83
2022/10/24 12:40:55;;;;;;;7.72;2.08;;;19.60;99.90;;;;;;5120166;28;20711;-82
2022/10/24 12:43:34;;;;;;;5.40;2.00;;;19.50;1.00;;;;;;5122982;28;20698;-82
2022/10/24 12:46:24;;;;;;;7.40;2.13;;;19.60;1.00;;;;;;5122051;28;20213;-83
2022/10/24 12:49:18;;;;;;;7.22;1.90;;;19.60;1.00;;;;;;5121346;28;20308;-82
2022/10/24 12:51:44;;;;;;;4.00;2.00;;;19.60;1.00;;;;;;5120878;28;20189;-84
2022/10/24 12:54:17;;;;;;;11.27;2.22;;;19.60;1.00;;;;;;5119272;28;20203;-84
2022/10/24 12:57:20;;;;;;;6.82;2.30;;;19.60;1.00;;;;;;5121250;28;20288;-83
2022/10/24 12:59:50;;;;;;;5.22;2.33;;;19.50;99.90;;;;;;5119820;28;20360;-82
2022/10/24 13:02:47;;;;;;;4.03;2.08;;;19.50;99.90;;;;;;5120772;28;20667;-83
2022/10/24 13:05:36;;;;;;;5.85;2.20;;;19.30;99.90;;;;;;5120106;28;20212;-83
2022/10/24 13:08:22;;;;;;;4.45;2.70;;;19.30;99.90;;;;;;5121457;28;20193;-84